KMCE/MCE METAR and TAF weather

Enter ICAO airport designator
Station Type Date Time Source
KMCE METAR 2019/08/24 16:53 UTC NOAA

KMCE 241653Z AUTO 33006KT 10SM CLR 28/14 A2989 RMK AO2 SLP118 T02830139


Station Type Date Time Source
KMCE Decoded METAR 2019/08/24 16:53 UTC NOAA

Station name not available
Aug 24, 2019 - 12:53 PM EDT / 2019.08.24 1653 UTC
Wind: from the NNW (330 degrees) at 7 MPH (6 KT):0
Visibility: 10 mile(s):0
Sky conditions: clear
Temperature: 82.9 F (28.3 C)
Dew Point: 57.0 F (13.9 C)
Relative Humidity: 41%
Pressure (altimeter): 29.89 in. Hg (1012 hPa)
ob: KMCE 241653Z AUTO 33006KT 10SM CLR 28/14 A2989 RMK AO2 SLP118 T02830139
cycle: 17

Station Type Date Time Source
KMCE TAF 2019/08/24 18:22 UTC NOAA

TAF KMCE 241720Z 2418/2518 VRB06KT P6SM SKC

Example: see airport list